createdAt,value
2023-10-23T00:01:24.822Z,88.86
2023-10-23T00:03:52.893Z,89.01
2023-10-23T00:06:20.931Z,88.95
2023-10-23T00:08:48.873Z,89.34
2023-10-23T00:11:25.186Z,88.91
2023-10-23T00:13:53.165Z,89.26
2023-10-23T00:16:21.570Z,89.53
2023-10-23T00:18:50.443Z,89.94
2023-10-23T00:21:18.686Z,90.13
2023-10-23T00:23:46.578Z,90.20
2023-10-23T00:26:14.556Z,90.24
2023-10-23T00:28:44.031Z,90.88
2023-10-23T00:31:11.941Z,91.64
2023-10-23T00:33:40.061Z,91.25
2023-10-23T00:36:08.221Z,90.82
2023-10-23T00:38:36.170Z,91.43
2023-10-23T00:41:04.170Z,91.64
2023-10-23T00:43:32.205Z,91.62
2023-10-23T00:46:02.777Z,91.92
2023-10-23T00:48:30.876Z,91.88
2023-10-23T00:51:00.572Z,92.30
2023-10-23T00:53:31.779Z,91.99
2023-10-23T00:56:00.887Z,92.11
2023-10-23T00:58:29.389Z,92.33
2023-10-23T01:00:59.683Z,92.36
2023-10-23T01:03:29.072Z,93.00
2023-10-23T01:05:57.149Z,92.90
2023-10-23T01:08:25.227Z,92.75
2023-10-23T01:10:53.461Z,92.97
2023-10-23T01:13:21.447Z,92.68
2023-10-23T01:15:49.830Z,92.59
2023-10-23T01:18:17.774Z,92.54
2023-10-23T01:20:47.467Z,92.33
2023-10-23T01:23:15.520Z,92.62
2023-10-23T01:25:44.855Z,93.17
2023-10-23T01:28:12.884Z,93.16
2023-10-23T01:30:41.859Z,92.97
2023-10-23T01:33:09.992Z,93.12
2023-10-23T01:35:38.024Z,93.59
2023-10-23T01:38:05.943Z,93.96
2023-10-23T01:40:34.080Z,93.87
2023-10-23T01:43:03.379Z,93.82
2023-10-23T01:45:31.379Z,93.48
2023-10-23T01:47:59.346Z,93.37
2023-10-23T01:50:27.226Z,93.42
2023-10-23T01:52:55.232Z,93.51
2023-10-23T01:55:23.114Z,93.71
2023-10-23T01:57:51.051Z,93.85
2023-10-23T02:00:20.709Z,93.67
2023-10-23T02:02:48.803Z,94.01
2023-10-23T02:05:16.773Z,94.80
2023-10-23T02:07:45.201Z,94.76
2023-10-23T02:10:13.145Z,94.82
2023-10-23T02:12:41.077Z,94.97
2023-10-23T02:15:11.452Z,95.09
2023-10-23T02:17:40.941Z,95.32
2023-10-23T02:20:09.480Z,94.97
2023-10-23T02:22:37.854Z,95.44
2023-10-23T02:25:06.839Z,94.97
2023-10-23T02:27:34.804Z,94.67
2023-10-23T02:30:03.017Z,94.66
2023-10-23T02:32:31.046Z,95.10
2023-10-23T02:35:00.380Z,95.15
2023-10-23T02:37:28.500Z,95.11
2023-10-23T02:39:58.266Z,95.29
2023-10-23T02:42:26.477Z,95.46
2023-10-23T02:44:55.347Z,95.37
2023-10-23T02:47:23.241Z,94.99
2023-10-23T02:49:51.212Z,95.13
2023-10-23T02:52:22.195Z,95.31
2023-10-23T02:54:51.783Z,94.96
2023-10-23T02:57:20.039Z,94.92
2023-10-23T02:59:49.024Z,94.95
2023-10-23T03:02:17.884Z,94.90
2023-10-23T03:04:45.866Z,95.06
2023-10-23T03:07:14.583Z,94.98
2023-10-23T03:09:44.189Z,94.19
2023-10-23T03:12:12.228Z,94.64
2023-10-23T03:14:40.215Z,94.41
2023-10-23T03:17:08.613Z,93.61
2023-10-23T03:19:36.636Z,93.35
2023-10-23T03:22:05.312Z,93.76
2023-10-23T03:24:33.863Z,93.08
2023-10-23T03:27:03.143Z,94.03
2023-10-23T03:29:31.044Z,93.61
2023-10-23T03:31:58.993Z,93.73
2023-10-23T03:34:27.210Z,93.09
2023-10-23T03:36:55.356Z,93.13
2023-10-23T03:39:23.348Z,92.48
2023-10-23T03:41:51.254Z,92.42
2023-10-23T03:44:20.632Z,92.23
2023-10-23T03:46:48.626Z,92.04
2023-10-23T03:49:16.691Z,92.23
2023-10-23T03:51:44.783Z,92.31
2023-10-23T03:54:12.705Z,92.93
2023-10-23T03:56:40.763Z,92.89
2023-10-23T03:59:08.772Z,92.58
2023-10-23T04:01:38.206Z,92.48
2023-10-23T04:04:06.541Z,92.40
2023-10-23T04:06:34.693Z,92.97
2023-10-23T04:09:02.676Z,93.18
2023-10-23T04:11:30.643Z,92.84
2023-10-23T04:13:58.663Z,92.77
2023-10-23T04:16:26.542Z,92.92
2023-10-23T04:18:56.068Z,93.14
2023-10-23T04:25:04.887Z,93.30
2023-10-23T04:27:32.990Z,93.92
2023-10-23T04:30:01.837Z,93.92
2023-10-23T04:32:30.078Z,93.60
2023-10-23T04:34:59.437Z,93.94
2023-10-23T04:37:27.649Z,93.44
2023-10-23T04:39:55.660Z,93.00
2023-10-23T04:42:23.708Z,93.54
2023-10-23T04:44:51.613Z,93.01
2023-10-23T04:47:19.466Z,93.44
2023-10-23T04:49:48.751Z,93.37
2023-10-23T04:52:18.160Z,93.80
2023-10-23T04:54:46.809Z,94.58
2023-10-23T04:57:14.795Z,94.26
2023-10-23T04:59:42.856Z,94.27
2023-10-23T05:02:10.799Z,94.28
2023-10-23T05:04:38.896Z,95.02
2023-10-23T05:07:07.002Z,95.45
2023-10-23T05:09:36.512Z,95.38
2023-10-23T05:12:06.199Z,95.74
2023-10-23T05:14:34.535Z,95.81
2023-10-23T05:17:02.484Z,95.38
2023-10-23T05:19:30.432Z,94.90
2023-10-23T05:21:58.347Z,95.82
2023-10-23T05:24:27.949Z,95.13
2023-10-23T05:26:57.560Z,95.23
2023-10-23T05:29:25.435Z,94.29
2023-10-23T05:31:53.327Z,94.83
2023-10-23T05:34:21.254Z,94.77
2023-10-23T05:36:49.270Z,94.63
2023-10-23T05:39:17.679Z,94.58
2023-10-23T05:41:45.596Z,94.32
2023-10-23T05:44:14.902Z,94.25
2023-10-23T05:46:42.845Z,94.27
2023-10-23T05:49:10.874Z,94.05
2023-10-23T05:51:38.788Z,95.15
2023-10-23T05:54:07.087Z,95.93
2023-10-23T05:56:35.279Z,95.99
2023-10-23T05:59:03.298Z,95.72
2023-10-23T06:01:32.622Z,96.00
2023-10-23T06:04:00.636Z,95.32
2023-10-23T06:06:28.642Z,95.44
2023-10-23T06:08:56.560Z,95.67
2023-10-23T06:11:25.530Z,95.62
2023-10-23T06:13:53.418Z,95.42
2023-10-23T06:16:21.311Z,95.87
2023-10-23T06:18:50.724Z,95.18
2023-10-23T06:21:19.698Z,96.31
2023-10-23T06:23:48.632Z,95.97
2023-10-23T06:26:16.574Z,96.57
2023-10-23T06:28:44.504Z,96.51
2023-10-23T06:31:13.249Z,96.86
2023-10-23T06:33:43.842Z,97.26
2023-10-23T06:36:13.391Z,96.99
2023-10-23T06:38:41.592Z,97.23
2023-10-23T06:41:10.057Z,97.32
2023-10-23T06:43:38.492Z,96.70
2023-10-23T06:46:07.345Z,95.88
2023-10-23T06:48:35.852Z,96.00
2023-10-23T06:51:04.945Z,95.50
2023-10-23T06:53:35.900Z,95.85
2023-10-23T06:56:04.058Z,95.68
2023-10-23T06:58:31.987Z,95.95
2023-10-23T07:01:07.516Z,95.41
2023-10-23T07:03:35.705Z,95.81
2023-10-23T07:06:06.650Z,95.40
2023-10-23T07:08:38.531Z,95.32
2023-10-23T07:11:13.761Z,94.35
2023-10-23T07:13:41.769Z,94.47
2023-10-23T07:16:10.308Z,94.70
2023-10-23T07:18:38.336Z,94.82
2023-10-23T07:21:06.320Z,94.33
2023-10-23T07:23:36.020Z,94.59
2023-10-23T07:26:08.911Z,94.04
2023-10-23T07:28:37.476Z,95.01
2023-10-23T07:31:05.477Z,94.18
2023-10-23T07:33:34.024Z,93.75
2023-10-23T07:36:03.801Z,92.96
2023-10-23T07:38:31.812Z,92.52
2023-10-23T07:41:01.699Z,93.09
2023-10-23T07:43:30.600Z,93.37
2023-10-23T07:48:30.412Z,92.32
2023-10-23T07:51:00.447Z,90.91
2023-10-23T07:53:28.882Z,90.03
2023-10-23T07:55:56.929Z,90.25
2023-10-23T07:58:26.258Z,89.64
2023-10-23T08:01:06.077Z,89.14
2023-10-23T08:03:35.585Z,89.63
2023-10-23T08:06:05.010Z,89.17
2023-10-23T08:08:35.286Z,88.57
2023-10-23T08:11:05.536Z,89.30
2023-10-23T08:13:36.105Z,87.99
2023-10-23T08:16:05.540Z,88.11
2023-10-23T08:18:39.781Z,87.57
2023-10-23T08:21:12.747Z,88.10
2023-10-23T08:23:41.172Z,87.80
2023-10-23T08:26:09.416Z,87.78
2023-10-23T08:31:20.378Z,87.48
2023-10-23T08:33:53.369Z,88.21
2023-10-23T08:36:21.322Z,88.25
2023-10-23T08:38:49.211Z,88.33
2023-10-23T08:41:17.124Z,88.31
2023-10-23T08:43:46.656Z,88.76
2023-10-23T08:46:15.439Z,90.34
2023-10-23T08:48:43.592Z,90.27
2023-10-23T08:51:11.633Z,90.91
2023-10-23T08:54:06.885Z,90.91
2023-10-23T08:56:39.911Z,91.29
2023-10-23T08:59:11.397Z,91.26
2023-10-23T09:01:39.977Z,90.73
2023-10-23T09:04:11.423Z,91.50
2023-10-23T09:06:40.370Z,91.05
2023-10-23T09:09:08.603Z,91.20
2023-10-23T09:11:40.795Z,91.18
2023-10-23T09:14:10.230Z,90.77
2023-10-23T09:16:38.486Z,90.48
2023-10-23T09:19:06.667Z,90.76
2023-10-23T09:21:35.891Z,89.75
2023-10-23T09:24:05.659Z,90.76
2023-10-23T09:26:33.735Z,90.58
2023-10-23T09:29:01.699Z,91.27
2023-10-23T09:31:31.287Z,91.04
2023-10-23T09:33:59.449Z,90.94
2023-10-23T09:36:28.451Z,89.41
2023-10-23T09:39:01.064Z,89.89
2023-10-23T09:41:30.876Z,89.90
2023-10-23T09:44:01.973Z,89.58
2023-10-23T09:46:34.225Z,90.13
2023-10-23T09:49:05.029Z,90.44
2023-10-23T09:51:39.966Z,91.77
2023-10-23T09:54:16.782Z,91.55
2023-10-23T09:56:49.882Z,90.21
2023-10-23T09:59:19.685Z,89.59
2023-10-23T10:01:52.546Z,89.20
2023-10-23T10:04:27.461Z,89.04
2023-10-23T10:06:57.477Z,88.50
2023-10-23T10:09:27.133Z,89.31
2023-10-23T10:11:57.184Z,89.32
2023-10-23T10:14:26.606Z,88.84
2023-10-23T10:16:57.903Z,87.83
2023-10-23T10:19:27.936Z,87.61
2023-10-23T10:22:05.693Z,87.18
2023-10-23T10:24:35.803Z,88.22
2023-10-23T10:27:05.441Z,87.36
2023-10-23T10:29:34.082Z,87.10
2023-10-23T10:32:11.209Z,86.77
2023-10-23T10:34:56.735Z,84.94
2023-10-23T10:37:28.694Z,83.66
2023-10-23T10:40:07.754Z,84.12
2023-10-23T10:42:43.453Z,83.45
2023-10-23T10:45:18.240Z,82.19
2023-10-23T10:47:49.760Z,82.01
2023-10-23T10:50:35.267Z,82.05
2023-10-23T10:53:04.895Z,80.72
2023-10-23T10:55:33.567Z,81.21
2023-10-23T10:58:01.959Z,80.83
2023-10-23T11:00:34.469Z,80.37
2023-10-23T11:03:04.462Z,80.60
2023-10-23T11:05:33.501Z,80.09
2023-10-23T11:08:02.051Z,79.94
2023-10-23T11:10:30.150Z,78.69
2023-10-23T11:12:58.106Z,77.98
2023-10-23T11:15:26.006Z,74.09
2023-10-23T11:17:54.855Z,73.88
2023-10-23T11:20:24.182Z,73.33
2023-10-23T11:22:52.110Z,70.97
2023-10-23T11:25:20.060Z,70.84
2023-10-23T11:27:52.350Z,69.88
2023-10-23T11:30:20.604Z,68.80
2023-10-23T11:32:52.361Z,69.79
2023-10-23T11:35:20.428Z,69.09
2023-10-23T11:37:50.028Z,68.81
2023-10-23T11:40:21.986Z,67.75
2023-10-23T11:42:54.933Z,67.21
2023-10-23T11:45:23.732Z,67.42
2023-10-23T11:47:53.491Z,66.48
2023-10-23T11:50:23.045Z,66.21
2023-10-23T11:52:52.610Z,66.56
2023-10-23T11:55:21.497Z,66.60
2023-10-23T11:57:52.096Z,65.20
2023-10-23T12:00:23.270Z,66.25
2023-10-23T12:02:52.171Z,66.42
2023-10-23T12:05:22.812Z,66.74
2023-10-23T12:07:54.254Z,66.64
2023-10-23T12:10:25.802Z,66.15
2023-10-23T12:12:55.024Z,66.24
2023-10-23T12:15:24.438Z,65.83
2023-10-23T12:17:53.118Z,65.29
2023-10-23T12:20:23.166Z,66.04
2023-10-23T12:22:53.348Z,65.80
2023-10-23T12:25:21.983Z,66.08
2023-10-23T12:27:50.102Z,65.11
2023-10-23T12:30:21.694Z,65.07
2023-10-23T12:33:11.483Z,64.00
2023-10-23T12:35:42.711Z,65.02
2023-10-23T12:38:12.996Z,64.93
2023-10-23T12:40:42.662Z,65.14
2023-10-23T12:43:11.018Z,65.09
2023-10-23T12:45:39.075Z,65.47
2023-10-23T12:48:07.342Z,64.87
2023-10-23T12:50:35.500Z,65.40
2023-10-23T12:53:04.051Z,65.46
2023-10-23T12:55:33.436Z,63.63
2023-10-23T12:58:03.351Z,63.68
2023-10-23T13:00:31.457Z,63.38
2023-10-23T13:02:59.391Z,61.62
2023-10-23T13:05:27.372Z,62.56
2023-10-23T13:07:55.996Z,62.46
2023-10-23T13:10:24.016Z,62.18
2023-10-23T13:12:53.268Z,60.70
2023-10-23T13:15:21.445Z,60.82
2023-10-23T13:17:49.432Z,60.75
2023-10-23T13:21:31.047Z,60.75
2023-10-23T13:23:05.506Z,61.24
2023-10-23T13:25:35.888Z,61.05
2023-10-23T13:28:06.161Z,61.48
2023-10-23T13:30:34.223Z,61.68
2023-10-23T13:33:02.610Z,61.67
2023-10-23T13:35:30.737Z,61.93
2023-10-23T13:37:59.050Z,61.93
2023-10-23T13:40:27.040Z,62.28
2023-10-23T13:42:55.291Z,62.71
2023-10-23T13:45:24.682Z,62.95
2023-10-23T13:47:53.146Z,62.90
2023-10-23T13:50:22.156Z,62.16
2023-10-23T13:52:50.085Z,62.03
2023-10-23T13:55:18.062Z,61.50
2023-10-23T13:57:46.087Z,61.28
2023-10-23T14:00:17.290Z,61.11
2023-10-23T14:02:47.192Z,60.93
2023-10-23T14:05:15.153Z,61.74
2023-10-23T14:07:43.295Z,62.19
2023-10-23T14:10:12.079Z,62.09
2023-10-23T14:12:52.439Z,62.37
2023-10-23T14:15:21.131Z,62.48
2023-10-23T14:17:50.612Z,62.95
2023-10-23T14:20:18.864Z,63.19
2023-10-23T14:22:46.901Z,63.38
2023-10-23T14:25:14.969Z,63.88
2023-10-23T14:27:43.091Z,63.98
2023-10-23T14:30:12.154Z,64.45
2023-10-23T14:32:40.623Z,65.03
2023-10-23T14:35:11.241Z,65.31
2023-10-23T14:37:39.495Z,66.03
2023-10-23T14:40:10.936Z,65.39
2023-10-23T14:42:39.345Z,64.92
2023-10-23T14:45:10.847Z,65.97
2023-10-23T14:47:39.894Z,65.85
2023-10-23T14:50:10.045Z,65.82
2023-10-23T14:52:38.089Z,65.49
2023-10-23T14:55:07.286Z,67.10
2023-10-23T14:57:35.253Z,67.41
2023-10-23T15:00:04.867Z,67.99
2023-10-23T15:02:33.010Z,68.27
2023-10-23T15:05:01.544Z,68.72
2023-10-23T15:07:31.036Z,69.18
2023-10-23T15:09:59.233Z,69.60
2023-10-23T15:12:27.909Z,69.81
2023-10-23T15:14:55.901Z,70.18
2023-10-23T15:17:24.003Z,70.40
2023-10-23T15:19:55.871Z,70.25
2023-10-23T15:22:24.065Z,70.43
2023-10-23T15:24:53.414Z,70.81
2023-10-23T15:27:21.333Z,70.98
2023-10-23T15:29:49.365Z,71.40
2023-10-23T15:32:17.248Z,71.49
2023-10-23T15:34:45.232Z,72.06
2023-10-23T15:37:13.182Z,72.50
2023-10-23T15:39:44.033Z,72.51
2023-10-23T15:42:13.380Z,73.38
2023-10-23T15:44:43.124Z,73.78
2023-10-23T15:47:11.274Z,73.88
2023-10-23T15:49:39.522Z,74.29
2023-10-23T15:52:08.102Z,74.94
2023-10-23T15:54:36.030Z,75.13
2023-10-23T15:57:04.720Z,75.57
2023-10-23T15:59:34.262Z,76.24
2023-10-23T16:02:02.417Z,76.57
2023-10-23T16:04:30.548Z,76.61
2023-10-23T16:06:58.631Z,76.93
2023-10-23T16:09:28.119Z,77.32
2023-10-23T16:11:57.087Z,77.87
2023-10-23T16:17:12.231Z,78.05
2023-10-23T16:19:40.245Z,78.44
2023-10-23T16:22:08.412Z,78.53
2023-10-23T16:24:36.475Z,79.39
2023-10-23T16:27:05.522Z,79.35
2023-10-23T16:29:33.514Z,79.15
2023-10-23T16:32:03.116Z,79.76
2023-10-23T16:34:31.304Z,79.72
2023-10-23T16:36:59.737Z,80.08
2023-10-23T16:39:31.668Z,80.61
2023-10-23T16:41:59.857Z,80.38
2023-10-23T16:44:34.706Z,81.09
2023-10-23T16:47:14.132Z,80.96
2023-10-23T16:49:42.132Z,81.08
2023-10-23T16:52:10.167Z,81.74
2023-10-23T16:54:38.528Z,82.18
2023-10-23T16:57:06.844Z,82.51
2023-10-23T16:59:35.093Z,82.85
2023-10-23T17:02:03.191Z,82.85
2023-10-23T17:04:32.864Z,83.20
2023-10-23T17:07:01.195Z,83.45
2023-10-23T17:09:29.875Z,83.50
2023-10-23T17:11:57.737Z,84.17
2023-10-23T17:14:25.763Z,84.37
2023-10-23T17:16:53.863Z,84.40
2023-10-23T17:19:21.900Z,84.30
2023-10-23T17:21:51.209Z,84.85
2023-10-23T17:24:19.279Z,84.76
2023-10-23T17:26:48.009Z,85.50
2023-10-23T17:29:16.034Z,85.20
2023-10-23T17:31:44.145Z,85.16
2023-10-23T17:34:12.213Z,84.87
2023-10-23T17:36:40.145Z,85.33
2023-10-23T17:39:09.471Z,85.32
2023-10-23T17:41:37.842Z,85.52
2023-10-23T17:44:06.500Z,85.60
2023-10-23T17:46:36.487Z,86.06
2023-10-23T17:49:05.033Z,86.00
2023-10-23T17:51:33.253Z,86.48
2023-10-23T17:54:05.390Z,86.59
2023-10-23T17:56:37.465Z,86.76
2023-10-23T17:59:06.302Z,86.93
2023-10-23T18:01:34.483Z,87.20
2023-10-23T18:04:02.524Z,87.08
2023-10-23T18:06:30.523Z,87.44
2023-10-23T18:08:59.119Z,87.42
2023-10-23T18:11:27.461Z,87.35
2023-10-23T18:13:57.441Z,87.48
2023-10-23T18:16:25.567Z,87.21
2023-10-23T18:18:53.584Z,87.61
2023-10-23T18:21:21.618Z,87.77
2023-10-23T18:23:49.510Z,87.71
2023-10-23T18:26:19.495Z,87.33
2023-10-23T18:28:48.012Z,87.25
2023-10-23T18:31:22.089Z,87.54
2023-10-23T18:33:53.975Z,87.80
2023-10-23T18:36:23.083Z,88.19
2023-10-23T18:38:51.166Z,88.22
2023-10-23T18:41:19.855Z,88.67
2023-10-23T18:43:48.142Z,88.88
2023-10-23T18:46:17.714Z,87.91
2023-10-23T18:48:46.222Z,89.20
2023-10-23T18:51:14.766Z,88.76
2023-10-23T18:53:42.910Z,88.65
2023-10-23T18:56:11.420Z,88.73
2023-10-23T18:58:39.437Z,88.53
2023-10-23T19:01:09.534Z,89.20
2023-10-23T19:03:39.836Z,88.97
2023-10-23T19:06:08.598Z,89.72
2023-10-23T19:08:37.222Z,89.10
2023-10-23T19:11:05.607Z,89.82
2023-10-23T19:13:34.914Z,89.74
2023-10-23T19:16:04.389Z,89.05
2023-10-23T19:18:33.078Z,90.25
2023-10-23T19:21:03.280Z,90.52
2023-10-23T19:23:31.390Z,89.72
2023-10-23T19:25:59.376Z,90.12
2023-10-23T19:28:27.335Z,89.77
2023-10-23T19:30:56.671Z,89.73
2023-10-23T19:33:25.282Z,90.03
2023-10-23T19:35:54.387Z,90.01
2023-10-23T19:38:24.313Z,89.80
2023-10-23T19:40:53.866Z,90.35
2023-10-23T19:43:27.124Z,90.81
2023-10-23T19:45:56.060Z,90.56
2023-10-23T19:48:24.631Z,90.59
2023-10-23T19:50:54.421Z,90.68
2023-10-23T19:53:24.573Z,90.35
2023-10-23T19:55:53.878Z,89.69
2023-10-23T19:58:22.329Z,90.05
2023-10-23T20:00:50.684Z,89.78
2023-10-23T20:03:18.682Z,89.82
2023-10-23T20:05:46.983Z,89.37
2023-10-23T20:08:15.091Z,89.88
2023-10-23T20:10:44.993Z,89.37
2023-10-23T20:13:13.078Z,89.65
2023-10-23T20:15:41.183Z,89.31
2023-10-23T20:18:09.731Z,89.28
2023-10-23T20:20:37.650Z,89.84
2023-10-23T20:23:06.175Z,90.26
2023-10-23T20:25:34.559Z,91.17
2023-10-23T20:28:05.358Z,90.52
2023-10-23T20:30:35.094Z,91.56
2023-10-23T20:33:03.968Z,91.49
2023-10-23T20:35:32.028Z,90.84
2023-10-23T20:38:00.122Z,90.74
2023-10-23T20:40:28.132Z,90.36
2023-10-23T20:42:56.123Z,89.84
2023-10-23T20:45:25.473Z,90.02
2023-10-23T20:47:53.590Z,89.89
2023-10-23T20:50:24.310Z,89.82
2023-10-23T20:52:52.403Z,88.93
2023-10-23T20:55:20.364Z,88.43
2023-10-23T20:57:48.240Z,88.13
2023-10-23T21:00:16.763Z,88.00
2023-10-23T21:02:46.096Z,88.05
2023-10-23T21:05:14.269Z,88.39
2023-10-23T21:07:42.323Z,87.40
2023-10-23T21:10:10.674Z,87.43
2023-10-23T21:12:38.681Z,87.43
2023-10-23T21:15:07.573Z,87.42
2023-10-23T21:17:36.070Z,86.96
2023-10-23T21:20:06.220Z,86.75
2023-10-23T21:22:34.239Z,86.65
2023-10-23T21:25:02.370Z,86.62
2023-10-23T21:27:30.364Z,86.33
2023-10-23T21:29:58.331Z,86.99
2023-10-23T21:32:26.616Z,87.09
2023-10-23T21:34:54.562Z,87.21
2023-10-23T21:37:24.022Z,86.36
2023-10-23T21:39:52.187Z,86.55
2023-10-23T21:42:20.222Z,86.98
2023-10-23T21:44:48.130Z,86.64
2023-10-23T21:47:16.099Z,86.50
2023-10-23T21:49:45.406Z,86.20
2023-10-23T21:52:13.698Z,87.03
2023-10-23T21:54:43.753Z,85.80
2023-10-23T21:57:20.616Z,86.39
2023-10-23T21:59:50.659Z,86.24
2023-10-23T22:02:19.073Z,86.40
2023-10-23T22:04:53.611Z,85.99
2023-10-23T22:07:22.015Z,86.23
2023-10-23T22:09:52.011Z,86.72
2023-10-23T22:12:20.529Z,86.35
2023-10-23T22:14:48.889Z,86.00
2023-10-23T22:17:16.975Z,86.38
2023-10-23T22:19:45.136Z,87.32
2023-10-23T22:22:13.240Z,87.71
2023-10-23T22:24:41.407Z,87.91
2023-10-23T22:27:10.864Z,87.05
2023-10-23T22:29:38.774Z,86.77
2023-10-23T22:32:07.016Z,86.41
2023-10-23T22:34:35.611Z,86.66
2023-10-23T22:37:58.681Z,86.76
2023-10-23T22:39:52.697Z,86.38
2023-10-23T22:42:22.128Z,86.95
2023-10-23T22:44:50.039Z,85.69
2023-10-23T22:47:18.301Z,86.15
2023-10-23T22:49:46.874Z,86.11
2023-10-23T22:52:15.458Z,86.61
2023-10-23T22:54:59.211Z,87.30
2023-10-23T22:57:30.193Z,87.21
2023-10-23T22:59:58.639Z,86.88
2023-10-23T23:02:27.313Z,87.17
2023-10-23T23:04:55.752Z,86.34
2023-10-23T23:07:25.112Z,86.18
2023-10-23T23:09:53.594Z,86.65
2023-10-23T23:12:22.072Z,86.60
2023-10-23T23:14:52.054Z,86.20
2023-10-23T23:17:24.303Z,86.44
2023-10-23T23:19:53.227Z,87.31
2023-10-23T23:22:21.566Z,86.61
2023-10-23T23:24:49.555Z,86.91
2023-10-23T23:27:17.422Z,87.05
2023-10-23T23:29:45.332Z,86.74
2023-10-23T23:32:14.737Z,87.04
2023-10-23T23:34:42.791Z,87.83
2023-10-23T23:37:10.875Z,87.88
2023-10-23T23:39:41.772Z,87.27
2023-10-23T23:42:09.683Z,87.30
2023-10-23T23:44:37.711Z,87.57
2023-10-23T23:47:05.829Z,88.30
2023-10-23T23:49:35.225Z,87.72
2023-10-23T23:52:03.192Z,87.95
2023-10-23T23:54:31.079Z,87.70
2023-10-23T23:56:59.214Z,87.89
2023-10-23T23:59:27.125Z,87.87
